ALXO2: Washita River, Alex, OK

Data processed at Fri Jan 05 2018 23:20


All information presented herein is the property of the government of the United States of America and may be revised or deleted at any time without prior notice.
Dissemination of this information without the expressed written consent of the Public Affairs Office, Tulsa District U.S. Army Corps of Engineers is strictly prohibited.
These data are gathered electronically and, as presented, have not undergone any form of quality control. These data are not guaranteed to be valid or correct.
Go to home page.
Go to station list.

Upstream stations:

Downstream station:
Previous Day
Next Day
Current Day
    
SHEF ID:       ALXO2     Washita River at Alex, OK
STATION TYPE:  

               PRECIP     STAGE  RIV-FLOW  BAT-LOAD
                   in        ft       cfs      volt
              Ccp-Rev   Ccp-Rev   Ccp-Rev   Ccp-Rev
(US/Central)
01/03 00:00      0.00      2.13       334     12.41
01/03 01:00      0.00      2.02       301     12.33
01/03 02:00      0.00      1.94       277     12.33
01/03 03:00      0.00      1.96       283     12.33
01/03 04:00      0.00      1.94       277     12.25
01/03 05:00      0.00      2.02       301     12.25
01/03 06:00      0.00      1.90       266     12.25
01/03 07:00      0.00      1.93       274     12.25
01/03 08:00      0.00      1.94       277     12.25
01/03 09:00      0.00      1.82       244     12.25
01/03 10:00      0.00      1.43       153     12.73
01/03 11:00      0.00      2.04       307     13.37
01/03 12:00      0.00      2.13       334     13.44
01/03 13:00      0.00      2.15       340     13.44
01/03 14:00      0.00      2.12       331     13.44
01/03 15:00      0.00      2.12       331     13.44
01/03 16:00      0.00      2.08       319     13.29
01/03 17:00      0.00      2.08       319     13.21
01/03 18:00      0.00      2.11       328     12.81
01/03 19:00      0.00      2.17       346     12.65
01/03 20:00      0.00      2.11       328     12.65
01/03 21:00      0.00      2.14       337     12.57
01/03 22:00      0.00      2.01       298     12.57
01/03 23:00      0.00      2.00       295     12.57